Time;durP1;ratioP1;P1;durP2;ratioP2;P2;SDS_P1;SDS_P2;PMS_P1;PMS_P2;Temp;Humidity;BMP_temperature;BMP_pressure;BME280_temperature;BME280_humidity;BME280_pressure;Samples;Min_cycle;Max_cycle;Signal;HPM_P1;HPM_P2
2023/01/18 00:00:31;;;;;;;180.48;55.97;;;;;;;;;;6274129;22;20087;-82
2023/01/18 00:02:57;;;;;;;185.35;57.03;;;;;;;;;;6275121;22;20061;-82
2023/01/18 00:05:22;;;;;;;173.98;52.80;;;;;;;;;;6275755;22;20431;-82
2023/01/18 00:07:49;;;;;;;178.13;56.45;;;;;;;;;;6274136;22;20011;-82
2023/01/18 00:10:14;;;;;;;219.60;65.18;;;;;;;;;;6274450;22;20424;-82
2023/01/18 00:12:40;;;;;;;211.75;62.65;;;;;;;;;;6276047;22;20007;-82
2023/01/18 00:15:06;;;;;;;200.07;62.17;;;;;;;;;;6248455;22;20007;-82
2023/01/18 00:17:32;;;;;;;221.52;63.42;;;;;;;;;;6248397;22;20004;-82
2023/01/18 00:19:57;;;;;;;199.45;62.83;;;;;;;;;;6275950;22;20006;-82
2023/01/18 00:22:23;;;;;;;184.05;60.75;;;;;;;;;;6275549;22;20443;-82
2023/01/18 00:24:48;;;;;;;162.00;56.60;;;;;;;;;;6273762;22;20117;-82
2023/01/18 00:27:13;;;;;;;172.18;57.45;;;;;;;;;;6275934;22;20324;-82
2023/01/18 00:29:39;;;;;;;186.73;64.50;;;;;;;;;;6273701;22;20000;-82
2023/01/18 00:32:05;;;;;;;186.63;70.97;;;;;;;;;;6248162;22;20003;-82
2023/01/18 00:34:30;;;;;;;202.60;73.53;;;;;;;;;;6248369;22;20023;-83
2023/01/18 00:36:56;;;;;;;191.60;71.25;;;;;;;;;;6248181;22;20006;-82
2023/01/18 00:39:21;;;;;;;184.88;68.85;;;;;;;;;;6275543;22;20371;-82
2023/01/18 00:44:38;;;;;;;185.88;64.47;;;;;;;;;;6250504;22;20004;-82
2023/01/18 00:47:03;;;;;;;171.48;61.15;;;;;;;;;;6275054;22;20031;-82
2023/01/18 00:49:29;;;;;;;192.50;64.15;;;;;;;;;;6275407;22;19999;-81
2023/01/18 00:51:54;;;;;;;170.15;62.92;;;;;;;;;;6275487;22;20089;-82
2023/01/18 00:54:21;;;;;;;163.57;60.53;;;;;;;;;;6276133;22;20024;-82
2023/01/18 00:56:46;;;;;;;170.30;58.47;;;;;;;;;;6275656;22;20356;-82
2023/01/18 00:59:12;;;;;;;172.50;62.72;;;;;;;;;;6274749;22;20008;-82
2023/01/18 01:01:37;;;;;;;172.13;58.10;;;;;;;;;;6247802;22;20000;-82
2023/01/18 01:06:47;;;;;;;178.60;59.22;;;;;;;;;;6274748;22;20030;-82
2023/01/18 01:09:13;;;;;;;177.57;62.47;;;;;;;;;;6275116;22;20411;-81
2023/01/18 01:11:39;;;;;;;184.10;64.82;;;;;;;;;;6273714;22;20058;-82
2023/01/18 01:27:44;;;;;;;211.55;73.20;;;;;;;;;;6274960;22;20050;-82
2023/01/18 01:30:10;;;;;;;204.55;68.40;;;;;;;;;;6222652;22;20008;-82
2023/01/18 01:32:35;;;;;;;204.82;71.18;;;;;;;;;;6275211;22;20327;-82
2023/01/18 01:35:00;;;;;;;192.45;67.32;;;;;;;;;;6275142;22;20003;-82
2023/01/18 01:37:26;;;;;;;179.02;63.63;;;;;;;;;;6275244;22;20003;-82
2023/01/18 01:39:51;;;;;;;186.38;64.38;;;;;;;;;;6275194;22;20004;-82
2023/01/18 01:42:17;;;;;;;193.43;65.50;;;;;;;;;;6275029;22;20086;-82
2023/01/18 01:44:48;;;;;;;175.30;65.57;;;;;;;;;;6274537;22;20049;-81
2023/01/18 01:47:24;;;;;;;200.77;66.53;;;;;;;;;;6274927;22;20038;-81
2023/01/18 01:49:53;;;;;;;199.48;66.05;;;;;;;;;;6248184;22;20423;-82
2023/01/18 01:52:25;;;;;;;196.43;67.63;;;;;;;;;;6223728;22;19996;-82
2023/01/18 01:55:03;;;;;;;202.90;68.15;;;;;;;;;;6275122;22;20006;-82
2023/01/18 01:57:37;;;;;;;193.32;68.38;;;;;;;;;;6248800;22;20000;-81
2023/01/18 02:00:11;;;;;;;197.80;68.53;;;;;;;;;;6235457;22;20439;-82
2023/01/18 02:02:36;;;;;;;189.65;64.78;;;;;;;;;;6250420;22;20007;-81
2023/01/18 02:05:03;;;;;;;182.07;64.13;;;;;;;;;;6275647;22;20000;-81
2023/01/18 02:07:28;;;;;;;182.05;65.93;;;;;;;;;;6249899;22;19999;-82
2023/01/18 02:09:55;;;;;;;176.98;62.05;;;;;;;;;;6275753;22;20087;-82
2023/01/18 02:12:21;;;;;;;184.43;64.60;;;;;;;;;;6248282;22;19995;-82
2023/01/18 02:14:46;;;;;;;193.77;60.53;;;;;;;;;;6277034;22;20007;-81
2023/01/18 02:17:45;;;;;;;188.13;63.40;;;;;;;;;;6276840;22;20003;-81
2023/01/18 02:20:36;;;;;;;379.63;54.08;;;;;;;;;;6275517;22;20335;-82
2023/01/18 02:23:08;;;;;;;269.55;50.03;;;;;;;;;;6275789;22;19999;-81
2023/01/18 02:26:11;;;;;;;376.63;50.03;;;;;;;;;;6276667;22;20007;-82
2023/01/18 02:28:36;;;;;;;361.38;52.47;;;;;;;;;;6274547;22;20091;-82
2023/01/18 02:31:23;;;;;;;180.88;54.42;;;;;;;;;;6249820;22;20066;-82
2023/01/18 02:34:35;;;;;;;290.80;63.75;;;;;;;;;;6251016;22;20022;-81
2023/01/18 02:37:17;;;;;;;150.23;52.22;;;;;;;;;;6260401;22;20019;-82
2023/01/18 02:40:03;;;;;;;171.32;58.45;;;;;;;;;;6275268;22;20004;-82
2023/01/18 02:48:08;;;;;;;139.95;51.42;;;;;;;;;;6254057;22;20370;-81
2023/01/18 02:50:34;;;;;;;174.02;55.38;;;;;;;;;;6275938;22;20007;-81
2023/01/18 02:53:00;;;;;;;152.00;53.45;;;;;;;;;;6275885;22;20408;-81
2023/01/18 02:55:43;;;;;;;167.70;60.20;;;;;;;;;;6275101;22;20003;-81
2023/01/18 02:58:32;;;;;;;195.40;61.40;;;;;;;;;;6275354;22;20031;-81
2023/01/18 03:01:08;;;;;;;186.48;64.68;;;;;;;;;;6275314;22;20016;-81
2023/01/18 03:03:34;;;;;;;223.48;73.55;;;;;;;;;;6275625;22;20526;-82
2023/01/18 03:06:00;;;;;;;194.55;68.78;;;;;;;;;;6249257;22;20078;-82
2023/01/18 03:08:49;;;;;;;159.95;56.55;;;;;;;;;;6249549;22;20003;-81
2023/01/18 03:11:27;;;;;;;160.80;58.80;;;;;;;;;;6251144;22;20012;-81
2023/01/18 03:14:02;;;;;;;159.02;59.70;;;;;;;;;;6250212;22;20083;-81
2023/01/18 03:16:57;;;;;;;161.27;59.75;;;;;;;;;;6249141;22;20407;-81
2023/01/18 03:25:36;;;;;;;163.88;60.20;;;;;;;;;;6275770;22;20019;-81
2023/01/18 03:34:03;;;;;;;167.18;62.83;;;;;;;;;;6274755;22;20070;-83
2023/01/18 03:36:41;;;;;;;167.25;66.38;;;;;;;;;;6274619;22;20099;-82
2023/01/18 03:39:13;;;;;;;180.55;68.65;;;;;;;;;;6249739;22;20008;-82
2023/01/18 03:41:41;;;;;;;194.23;82.15;;;;;;;;;;6274449;22;19996;-82
2023/01/18 03:44:13;;;;;;;194.40;75.93;;;;;;;;;;6249262;22;20003;-83
2023/01/18 03:46:38;;;;;;;215.07;88.18;;;;;;;;;;6274658;22;19996;-82
2023/01/18 03:49:04;;;;;;;237.90;79.05;;;;;;;;;;6274663;22;20000;-82
2023/01/18 03:51:47;;;;;;;204.45;65.20;;;;;;;;;;6248855;22;20343;-82
2023/01/18 03:54:34;;;;;;;239.38;66.20;;;;;;;;;;6274388;22;20038;-82
2023/01/18 03:57:30;;;;;;;276.13;56.47;;;;;;;;;;6274347;22;20002;-81
2023/01/18 03:59:56;;;;;;;267.88;59.38;;;;;;;;;;6255078;22;20419;-82
2023/01/18 04:02:21;;;;;;;221.77;61.60;;;;;;;;;;6249026;22;20000;-83
2023/01/18 04:04:47;;;;;;;264.25;61.85;;;;;;;;;;6223394;22;20008;-82
2023/01/18 04:07:12;;;;;;;170.57;54.45;;;;;;;;;;6275583;22;20004;-82
2023/01/18 04:09:38;;;;;;;194.10;55.00;;;;;;;;;;6248296;22;20722;-83
2023/01/18 04:12:03;;;;;;;123.38;51.20;;;;;;;;;;6275713;22;20000;-82
2023/01/18 04:14:29;;;;;;;188.98;57.88;;;;;;;;;;6276133;22;20403;-82
2023/01/18 04:16:55;;;;;;;190.52;61.42;;;;;;;;;;6247984;22;20008;-82
2023/01/18 04:19:20;;;;;;;143.95;55.38;;;;;;;;;;6248988;22;20003;-82
2023/01/18 04:21:46;;;;;;;151.15;59.63;;;;;;;;;;6275927;22;20422;-82
2023/01/18 04:24:11;;;;;;;157.18;62.03;;;;;;;;;;6275134;22;20003;-82
2023/01/18 04:26:37;;;;;;;174.20;64.57;;;;;;;;;;6248439;22;20050;-83
2023/01/18 04:29:03;;;;;;;177.80;64.22;;;;;;;;;;6275529;22;20087;-82
2023/01/18 04:31:29;;;;;;;168.13;57.00;;;;;;;;;;6248857;22;20000;-83
2023/01/18 04:33:54;;;;;;;162.30;57.30;;;;;;;;;;6275814;22;20010;-82
2023/01/18 04:36:20;;;;;;;138.13;55.17;;;;;;;;;;6275690;22;20099;-82
2023/01/18 04:38:45;;;;;;;144.35;62.50;;;;;;;;;;6275401;22;20003;-83
2023/01/18 04:41:11;;;;;;;141.13;57.03;;;;;;;;;;6248363;22;20008;-83
2023/01/18 04:43:36;;;;;;;144.15;52.90;;;;;;;;;;6275716;22;20037;-82
2023/01/18 04:46:02;;;;;;;122.78;54.28;;;;;;;;;;6223418;22;20062;-83
2023/01/18 04:48:27;;;;;;;121.30;55.38;;;;;;;;;;6248383;22;20012;-82
2023/01/18 04:50:53;;;;;;;129.30;57.70;;;;;;;;;;6275387;22;20462;-82
2023/01/18 04:53:18;;;;;;;117.38;54.75;;;;;;;;;;6248370;22;20003;-82
2023/01/18 04:55:44;;;;;;;133.63;59.38;;;;;;;;;;6223798;22;20006;-83
2023/01/18 04:58:09;;;;;;;133.30;60.15;;;;;;;;;;6223998;22;20427;-82
2023/01/18 05:00:38;;;;;;;126.70;58.70;;;;;;;;;;6240720;22;20031;-82
2023/01/18 05:03:04;;;;;;;118.38;54.38;;;;;;;;;;6274858;22;20006;-82
2023/01/18 05:05:30;;;;;;;115.88;52.50;;;;;;;;;;6278080;22;20053;-82
2023/01/18 05:07:56;;;;;;;122.07;58.20;;;;;;;;;;6276271;22;20000;-82
2023/01/18 05:10:22;;;;;;;138.77;61.70;;;;;;;;;;6256947;22;19992;-81
2023/01/18 05:12:47;;;;;;;148.38;64.85;;;;;;;;;;6277876;22;19987;-82
2023/01/18 05:15:13;;;;;;;150.48;66.55;;;;;;;;;;6302830;22;20026;-82
2023/01/18 05:17:39;;;;;;;159.80;71.95;;;;;;;;;;6301469;22;20004;-83
2023/01/18 05:20:07;;;;;;;187.77;84.50;;;;;;;;;;6299956;22;20006;-83
2023/01/18 05:22:33;;;;;;;192.43;83.50;;;;;;;;;;6298195;22;20003;-82
2023/01/18 05:24:58;;;;;;;181.75;82.93;;;;;;;;;;6279667;22;20446;-82
2023/01/18 05:27:24;;;;;;;193.90;81.72;;;;;;;;;;6275200;22;20087;-82
2023/01/18 05:29:49;;;;;;;200.15;86.70;;;;;;;;;;6275278;22;20004;-85
2023/01/18 05:32:15;;;;;;;209.85;94.10;;;;;;;;;;6275384;22;20061;-85
2023/01/18 05:34:41;;;;;;;225.98;102.85;;;;;;;;;;6223539;22;20014;-86
2023/01/18 05:37:06;;;;;;;239.45;101.43;;;;;;;;;;6273187;22;20081;-84
2023/01/18 05:39:32;;;;;;;227.55;100.95;;;;;;;;;;6275370;22;20071;-84
2023/01/18 05:41:57;;;;;;;238.80;102.65;;;;;;;;;;6272665;22;20588;-84
2023/01/18 05:44:23;;;;;;;240.13;107.65;;;;;;;;;;6274443;22;20053;-84
2023/01/18 05:46:48;;;;;;;220.02;96.88;;;;;;;;;;6273188;22;20011;-84
2023/01/18 05:49:14;;;;;;;215.43;98.28;;;;;;;;;;6275006;22;20004;-84
2023/01/18 05:51:40;;;;;;;217.43;94.93;;;;;;;;;;6273052;22;20000;-83
2023/01/18 05:54:06;;;;;;;212.25;94.78;;;;;;;;;;6276141;22;20035;-83
2023/01/18 05:56:32;;;;;;;196.57;91.00;;;;;;;;;;6274723;22;20494;-85
2023/01/18 05:59:03;;;;;;;209.07;97.93;;;;;;;;;;6275197;22;20015;-85
2023/01/18 06:01:31;;;;;;;212.85;97.20;;;;;;;;;;6219815;22;20466;-84
2023/01/18 06:03:56;;;;;;;209.15;94.82;;;;;;;;;;6219011;22;20023;-84
2023/01/18 06:06:22;;;;;;;200.95;94.18;;;;;;;;;;6270532;22;20331;-82
2023/01/18 06:08:47;;;;;;;197.40;90.43;;;;;;;;;;6272081;22;20008;-84
2023/01/18 06:11:18;;;;;;;205.73;98.20;;;;;;;;;;6251537;22;20051;-83
2023/01/18 06:13:44;;;;;;;200.73;90.03;;;;;;;;;;6254105;22;20423;-83
2023/01/18 06:16:10;;;;;;;184.55;86.28;;;;;;;;;;6277151;22;20000;-82
2023/01/18 06:18:38;;;;;;;174.75;79.70;;;;;;;;;;6247318;22;20386;-84
2023/01/18 07:04:18;;;;;;;169.63;79.93;;;;;;;;;;6223282;22;1455681;-86
2023/01/18 07:06:50;;;;;;;153.82;76.28;;;;;;;;;;6167027;23;20009;-87
2023/01/18 07:18:27;;;;;;;331.85;97.85;;;;;;;;;;6232227;23;20061;-86
2023/01/18 07:34:30;;;;;;;147.10;71.10;;;;;;;;;;6195645;23;20028;-86
2023/01/18 07:37:00;;;;;;;142.35;68.80;;;;;;;;;;6169096;23;20082;-87
2023/01/18 07:39:44;;;;;;;149.85;73.90;;;;;;;;;;6199890;23;20009;-86
2023/01/18 07:42:19;;;;;;;;;;;;;;;;;;;;;
2023/01/18 07:45:12;;;;;;;131.15;66.38;;;;;;;;;;6203014;23;20043;-87
2023/01/18 07:48:58;;;;;;;131.85;63.55;;;;;;;;;;6200308;23;20321;-90
2023/01/18 08:01:33;;;;;;;180.52;99.28;;;;;;;;;;6214837;23;20013;-83
2023/01/18 08:03:58;;;;;;;165.48;83.82;;;;;;;;;;6190903;23;20091;-82
2023/01/18 08:06:24;;;;;;;189.20;97.32;;;;;;;;;;6186949;23;20008;-83
2023/01/18 08:08:50;;;;;;;212.98;107.82;;;;;;;;;;6162116;23;20081;-82
2023/01/18 08:11:16;;;;;;;201.10;105.40;;;;;;;;;;6213484;23;20029;-83
2023/01/18 08:13:51;;;;;;;206.05;111.22;;;;;;;;;;6213810;23;20004;-83
2023/01/18 08:16:17;;;;;;;231.00;124.22;;;;;;;;;;6214726;23;20308;-83
2023/01/18 08:18:44;;;;;;;204.30;111.15;;;;;;;;;;6188580;23;20435;-83
2023/01/18 08:21:11;;;;;;;214.85;114.43;;;;;;;;;;6189353;23;20031;-82
2023/01/18 08:23:40;;;;;;;192.32;104.55;;;;;;;;;;6166436;23;20044;-83
2023/01/18 08:26:05;;;;;;;118.13;64.20;;;;;;;;;;6220633;23;20012;-82
2023/01/18 08:28:34;;;;;;;120.72;66.25;;;;;;;;;;6189485;23;20336;-82
2023/01/18 08:31:22;;;;;;;175.25;94.82;;;;;;;;;;6215692;23;20434;-83
2023/01/18 08:33:50;;;;;;;164.63;88.97;;;;;;;;;;6215513;23;20103;-80
2023/01/18 08:36:17;;;;;;;166.65;87.63;;;;;;;;;;6218488;23;20000;-83
2023/01/18 08:38:47;;;;;;;136.65;64.53;;;;;;;;;;6213479;23;20180;-81
2023/01/18 08:41:12;;;;;;;111.30;56.33;;;;;;;;;;6157771;23;20181;-80
2023/01/18 08:43:38;;;;;;;107.00;54.22;;;;;;;;;;6211008;23;20095;-81
2023/01/18 08:46:04;;;;;;;78.95;42.45;;;;;;;;;;6185015;23;20001;-82
2023/01/18 08:48:29;;;;;;;67.47;35.65;;;;;;;;;;6211783;23;20268;-81
2023/01/18 08:50:59;;;;;;;97.65;47.63;;;;;;;;;;6211526;23;20079;-81
2023/01/18 08:53:25;;;;;;;65.20;35.28;;;;;;;;;;6163184;23;20036;-81
2023/01/18 08:55:57;;;;;;;66.35;36.33;;;;;;;;;;6211631;23;20012;-81
2023/01/18 08:58:22;;;;;;;58.42;32.13;;;;;;;;;;6210685;23;20067;-80
2023/01/18 09:00:49;;;;;;;66.70;37.58;;;;;;;;;;6209230;23;20008;-82
2023/01/18 09:03:20;;;;;;;66.85;34.85;;;;;;;;;;6207674;23;20039;-81
2023/01/18 09:05:46;;;;;;;60.90;33.50;;;;;;;;;;6208167;23;20242;-82
2023/01/18 09:08:12;;;;;;;61.95;34.22;;;;;;;;;;6157991;23;20453;-82
2023/01/18 09:10:37;;;;;;;57.45;32.50;;;;;;;;;;6210024;23;20007;-81
2023/01/18 09:13:04;;;;;;;59.72;33.50;;;;;;;;;;6210649;23;20595;-81
2023/01/18 09:15:30;;;;;;;57.03;32.45;;;;;;;;;;6211768;23;20020;-82
2023/01/18 09:17:55;;;;;;;55.67;31.55;;;;;;;;;;6211904;23;20454;-81
2023/01/18 09:20:21;;;;;;;56.78;31.80;;;;;;;;;;6212857;23;20514;-81
2023/01/18 09:22:47;;;;;;;57.58;31.17;;;;;;;;;;6213802;23;20005;-79
2023/01/18 09:25:13;;;;;;;57.13;32.33;;;;;;;;;;6214972;23;20080;-79
2023/01/18 09:27:38;;;;;;;56.60;32.13;;;;;;;;;;6212758;23;20000;-84
2023/01/18 09:30:05;;;;;;;62.40;34.22;;;;;;;;;;6184866;23;20103;-81
2023/01/18 09:32:31;;;;;;;65.57;34.63;;;;;;;;;;6212088;23;20062;-83
2023/01/18 09:34:56;;;;;;;62.03;33.47;;;;;;;;;;6211302;23;20039;-81
2023/01/18 09:37:21;;;;;;;96.28;49.88;;;;;;;;;;6185705;23;20365;-80
2023/01/18 09:39:47;;;;;;;71.97;38.22;;;;;;;;;;6216085;23;20005;-82
2023/01/18 09:42:18;;;;;;;59.30;32.33;;;;;;;;;;6192092;23;20024;-81
2023/01/18 09:44:51;;;;;;;58.40;31.55;;;;;;;;;;6164178;23;20016;-84
2023/01/18 09:47:25;;;;;;;63.60;33.50;;;;;;;;;;6190726;23;20351;-78
2023/01/18 09:49:56;;;;;;;55.90;32.15;;;;;;;;;;6184005;23;20005;-81
2023/01/18 09:52:21;;;;;;;;;;;;;;;;;;6161711;23;19997;-83
2023/01/18 09:55:02;;;;;;;62.58;37.28;;;;;;;;;;6209972;23;20063;-80
2023/01/18 09:57:37;;;;;;;54.25;31.50;;;;;;;;;;6212951;23;20015;-80
2023/01/18 10:00:03;;;;;;;55.75;31.52;;;;;;;;;;6212705;23;20032;-81
2023/01/18 10:02:37;;;;;;;54.88;31.70;;;;;;;;;;6211328;23;20443;-80
2023/01/18 10:05:22;;;;;;;47.88;28.08;;;;;;;;;;6161397;23;20032;-80
2023/01/18 10:07:50;;;;;;;47.42;28.08;;;;;;;;;;6150974;23;20539;-80
2023/01/18 10:10:17;;;;;;;49.30;28.65;;;;;;;;;;6207405;23;20084;-82
2023/01/18 10:12:58;;;;;;;51.22;27.92;;;;;;;;;;6209151;23;20038;-80
2023/01/18 10:15:25;;;;;;;58.60;32.35;;;;;;;;;;6181120;23;20004;-79
2023/01/18 10:17:55;;;;;;;51.25;30.73;;;;;;;;;;6157457;23;20009;-82
2023/01/18 10:20:30;;;;;;;51.00;31.42;;;;;;;;;;6209619;23;20412;-81
2023/01/18 10:23:06;;;;;;;55.45;32.63;;;;;;;;;;6184368;23;20008;-82
2023/01/18 10:25:32;;;;;;;53.65;32.72;;;;;;;;;;6186653;23;20005;-81
2023/01/18 10:27:57;;;;;;;51.47;32.05;;;;;;;;;;6184216;23;20432;-79
2023/01/18 10:30:30;;;;;;;54.63;33.03;;;;;;;;;;6212135;23;20039;-79
2023/01/18 10:32:57;;;;;;;61.60;34.10;;;;;;;;;;6161127;23;20091;-80
2023/01/18 10:35:33;;;;;;;64.35;38.38;;;;;;;;;;6211191;23;20009;-80
2023/01/18 10:38:05;;;;;;;63.72;39.70;;;;;;;;;;6185877;23;20116;-79
2023/01/18 10:40:30;;;;;;;58.83;36.88;;;;;;;;;;6161675;23;20007;-81
2023/01/18 10:42:58;;;;;;;62.70;37.15;;;;;;;;;;6185991;23;20008;-80
2023/01/18 10:45:29;;;;;;;66.50;38.10;;;;;;;;;;6185114;23;20008;-81
2023/01/18 10:47:57;;;;;;;57.88;35.42;;;;;;;;;;6213219;23;20000;-84
2023/01/18 10:50:43;;;;;;;51.33;30.55;;;;;;;;;;6214379;23;20011;-80
2023/01/18 10:53:32;;;;;;;44.95;28.98;;;;;;;;;;6206492;23;20008;-83
2023/01/18 10:56:02;;;;;;;47.70;29.00;;;;;;;;;;6205139;23;20062;-81
2023/01/18 10:59:00;;;;;;;44.80;28.08;;;;;;;;;;6183429;23;20012;-82
2023/01/18 11:01:33;;;;;;;45.00;26.77;;;;;;;;;;6178184;23;20339;-80
2023/01/18 11:04:06;;;;;;;41.35;28.02;;;;;;;;;;6209440;23;20470;-80
2023/01/18 11:06:49;;;;;;;44.50;27.67;;;;;;;;;;6159297;23;20354;-83
2023/01/18 11:09:33;;;;;;;44.67;25.83;;;;;;;;;;6209644;23;20004;-81
2023/01/18 11:12:37;;;;;;;38.92;24.40;;;;;;;;;;6208088;23;20012;-80
2023/01/18 11:15:14;;;;;;;32.90;21.50;;;;;;;;;;6163589;23;20005;-83
2023/01/18 11:17:59;;;;;;;37.60;21.15;;;;;;;;;;6210801;23;20028;-83
2023/01/18 11:20:33;;;;;;;37.28;21.55;;;;;;;;;;6211644;23;20024;-81
2023/01/18 11:23:01;;;;;;;23.75;13.48;;;;;;;;;;6186533;23;20493;-80
2023/01/18 11:25:36;;;;;;;20.65;12.57;;;;;;;;;;6160714;23;20004;-79
2023/01/18 11:28:02;;;;;;;11.90;4.70;;;;;;;;;;6185894;23;20012;-81
2023/01/18 11:30:27;;;;;;;8.77;4.05;;;;;;;;;;6157136;23;20005;-81
2023/01/18 11:32:53;;;;;;;10.73;2.67;;;;;;;;;;6185023;23;20024;-79
2023/01/18 11:35:35;;;;;;;6.25;2.70;;;;;;;;;;6161625;23;20012;-81
2023/01/18 11:38:01;;;;;;;5.75;2.53;;;;;;;;;;6163746;23;20305;-80
2023/01/18 11:40:28;;;;;;;9.18;3.13;;;;;;;;;;6193454;23;20012;-80
2023/01/18 11:43:10;;;;;;;13.38;4.32;;;;;;;;;;6187072;23;20035;-80
2023/01/18 11:45:53;;;;;;;7.53;2.90;;;;;;;;;;6140628;23;20020;-82
2023/01/18 11:48:41;;;;;;;7.63;3.00;;;;;;;;;;6190222;23;20024;-80
2023/01/18 11:51:19;;;;;;;8.65;2.88;;;;;;;;;;6139576;23;20039;-79
2023/01/18 11:54:09;;;;;;;15.02;3.85;;;;;;;;;;6214558;23;20004;-80
2023/01/18 11:56:47;;;;;;;10.75;3.55;;;;;;;;;;6213877;23;20005;-80
2023/01/18 11:59:16;;;;;;;11.18;3.80;;;;;;;;;;6211716;23;20249;-80
2023/01/18 12:01:47;;;;;;;7.87;2.90;;;;;;;;;;6186106;23;20008;-79
2023/01/18 12:04:18;;;;;;;11.45;3.72;;;;;;;;;;6212925;23;20027;-80
2023/01/18 12:07:02;;;;;;;7.57;2.83;;;;;;;;;;6162330;23;20005;-80
2023/01/18 12:09:50;;;;;;;11.45;4.60;;;;;;;;;;6186494;23;20397;-79
2023/01/18 12:12:29;;;;;;;16.50;4.50;;;;;;;;;;6212946;23;20395;-81
2023/01/18 12:15:02;;;;;;;11.80;4.70;;;;;;;;;;6189850;23;20001;-82
2023/01/18 12:17:34;;;;;;;12.32;4.57;;;;;;;;;;6189572;23;20396;-81
2023/01/18 12:20:05;;;;;;;9.27;2.38;;;;;;;;;;6188921;23;20439;-80
2023/01/18 12:22:52;;;;;;;6.13;1.70;;;;;;;;;;6215948;23;20004;-80
2023/01/18 12:25:33;;;;;;;7.93;2.10;;;;;;;;;;6188949;23;20091;-78
2023/01/18 12:28:06;;;;;;;5.43;1.60;;;;;;;;;;6213143;23;20013;-79
2023/01/18 12:30:31;;;;;;;14.93;5.13;;;;;;;;;;6186772;23;20004;-79
2023/01/18 12:33:32;;;;;;;16.75;5.50;;;;;;;;;;6212528;23;20485;-81
2023/01/18 12:36:41;;;;;;;8.52;3.70;;;;;;;;;;6187058;23;20011;-82
2023/01/18 12:39:16;;;;;;;19.00;6.95;;;;;;;;;;6168184;23;20031;-82
2023/01/18 12:42:03;;;;;;;19.73;7.00;;;;;;;;;;6161543;23;20001;-80
2023/01/18 12:44:53;;;;;;;21.50;7.72;;;;;;;;;;6211424;23;20005;-91
2023/01/18 12:47:46;;;;;;;17.83;5.18;;;;;;;;;;6161945;23;20099;-91
2023/01/18 12:50:23;;;;;;;26.42;10.68;;;;;;;;;;6171359;23;20087;-87
2023/01/18 12:53:03;;;;;;;21.20;7.90;;;;;;;;;;6187108;23;20001;-86
2023/01/18 12:55:30;;;;;;;18.90;6.05;;;;;;;;;;6163347;23;20005;-81
2023/01/18 12:57:59;;;;;;;13.50;5.80;;;;;;;;;;6185401;23;20095;-81
2023/01/18 13:00:35;;;;;;;24.37;9.10;;;;;;;;;;6184958;23;20016;-80
2023/01/18 13:03:02;;;;;;;10.82;3.85;;;;;;;;;;6188468;23;20390;-81
2023/01/18 13:05:53;;;;;;;12.63;5.32;;;;;;;;;;6137474;23;20075;-81
2023/01/18 13:08:26;;;;;;;13.95;5.80;;;;;;;;;;6213116;23;20359;-81
2023/01/18 13:10:54;;;;;;;9.23;4.75;;;;;;;;;;6186088;23;20008;-81
2023/01/18 13:13:24;;;;;;;13.50;4.35;;;;;;;;;;6162706;23;20039;-80
2023/01/18 13:16:01;;;;;;;12.63;5.15;;;;;;;;;;6163840;23;20384;-81
2023/01/18 13:18:35;;;;;;;10.77;5.50;;;;;;;;;;6175166;23;20001;-81
2023/01/18 13:21:10;;;;;;;10.40;4.07;;;;;;;;;;6139954;23;20031;-80
2023/01/18 13:23:48;;;;;;;14.07;4.65;;;;;;;;;;6214831;23;20008;-81
2023/01/18 13:26:32;;;;;;;8.90;4.35;;;;;;;;;;6214923;23;20032;-82
2023/01/18 13:29:24;;;;;;;4.45;2.22;;;;;;;;;;6188789;23;20408;-81
2023/01/18 13:31:50;;;;;;;10.43;3.97;;;;;;;;;;6163706;23;20021;-82
2023/01/18 13:34:29;;;;;;;8.40;3.67;;;;;;;;;;6188251;23;20005;-80
2023/01/18 13:36:54;;;;;;;7.55;3.05;;;;;;;;;;6215710;23;20008;-80
2023/01/18 13:39:20;;;;;;;4.78;2.65;;;;;;;;;;6214729;23;20443;-81
2023/01/18 13:42:03;;;;;;;7.50;2.92;;;;;;;;;;6217575;23;20448;-82
2023/01/18 13:44:38;;;;;;;10.65;3.15;;;;;;;;;;6214969;23;20000;-81
2023/01/18 13:47:41;;;;;;;8.43;3.60;;;;;;;;;;6218440;23;20450;-81
2023/01/18 13:50:36;;;;;;;7.38;3.50;;;;;;;;;;6187734;23;20012;-82
2023/01/18 13:53:14;;;;;;;12.50;5.00;;;;;;;;;;6214745;23;20004;-81
2023/01/18 13:56:20;;;;;;;22.55;6.45;;;;;;;;;;6216548;23;20012;-81
2023/01/18 13:58:51;;;;;;;10.45;4.07;;;;;;;;;;6187508;23;19997;-81
2023/01/18 14:01:21;;;;;;;11.00;4.35;;;;;;;;;;6187641;23;20008;-81
2023/01/18 14:03:48;;;;;;;11.32;4.00;;;;;;;;;;6187569;23;20028;-81
2023/01/18 14:06:34;;;;;;;7.63;3.72;;;;;;;;;;6187567;23;20005;-81
2023/01/18 14:09:05;;;;;;;10.40;4.25;;;;;;;;;;6212482;23;20413;-80
2023/01/18 14:11:33;;;;;;;14.43;4.60;;;;;;;;;;6190791;23;20008;-79
2023/01/18 14:13:58;;;;;;;28.27;11.82;;;;;;;;;;6195983;23;20019;-80
2023/01/18 14:16:30;;;;;;;15.00;5.55;;;;;;;;;;6214922;23;20039;-81
2023/01/18 14:19:15;;;;;;;8.77;3.58;;;;;;;;;;6188312;23;20004;-81
2023/01/18 14:21:47;;;;;;;4.97;2.08;;;;;;;;;;6187520;23;20067;-80
2023/01/18 14:24:15;;;;;;;4.80;2.30;;;;;;;;;;6187432;23;20562;-81
2023/01/18 14:26:41;;;;;;;16.95;3.33;;;;;;;;;;6213943;23;20138;-80
2023/01/18 14:29:13;;;;;;;4.00;1.90;;;;;;;;;;6162789;23;20001;-81
2023/01/18 14:31:44;;;;;;;6.03;2.08;;;;;;;;;;6162980;23;20015;-80
2023/01/18 14:34:36;;;;;;;5.50;1.92;;;;;;;;;;6163028;23;20312;-79
2023/01/18 14:37:03;;;;;;;8.07;1.70;;;;;;;;;;6163784;23;20110;-81
2023/01/18 14:39:31;;;;;;;5.20;2.30;;;;;;;;;;6186946;23;20083;-80
2023/01/18 14:42:02;;;;;;;6.65;2.08;;;;;;;;;;6214125;23;20015;-80
2023/01/18 14:44:49;;;;;;;6.47;2.08;;;;;;;;;;6188555;23;20650;-80
2023/01/18 14:47:16;;;;;;;7.45;2.55;;;;;;;;;;6187228;23;20431;-80
2023/01/18 14:49:43;;;;;;;3.13;1.40;;;;;;;;;;6187931;23;20007;-80
2023/01/18 14:52:14;;;;;;;4.53;1.63;;;;;;;;;;6187527;23;20015;-80
2023/01/18 14:54:45;;;;;;;5.35;2.15;;;;;;;;;;6163454;23;20008;-81
2023/01/18 14:57:11;;;;;;;8.68;2.92;;;;;;;;;;6186974;23;20011;-80
2023/01/18 14:59:38;;;;;;;7.75;2.58;;;;;;;;;;6138041;23;20028;-81
2023/01/18 15:02:17;;;;;;;14.63;3.90;;;;;;;;;;6187550;23;20408;-81
2023/01/18 15:04:44;;;;;;;20.73;4.70;;;;;;;;;;6164388;23;20005;-82
2023/01/18 15:07:17;;;;;;;12.30;5.85;;;;;;;;;;6188054;23;20001;-81
2023/01/18 15:09:43;;;;;;;23.23;9.05;;;;;;;;;;6187416;23;20001;-81
2023/01/18 15:12:14;;;;;;;15.55;8.05;;;;;;;;;;6187844;23;20028;-80
2023/01/18 15:14:44;;;;;;;15.73;7.38;;;;;;;;;;6140268;23;20015;-81
2023/01/18 15:17:21;;;;;;;18.27;8.20;;;;;;;;;;6189731;23;19996;-81
2023/01/18 15:19:58;;;;;;;11.70;5.85;;;;;;;;;;6164932;23;20004;-81
2023/01/18 15:22:29;;;;;;;18.83;7.10;;;;;;;;;;6215980;23;20004;-81
2023/01/18 15:24:55;;;;;;;15.40;7.05;;;;;;;;;;6189437;23;20408;-82
2023/01/18 15:27:20;;;;;;;18.80;8.30;;;;;;;;;;6140029;23;20008;-81
2023/01/18 15:29:52;;;;;;;20.15;9.88;;;;;;;;;;6189111;23;20009;-80
2023/01/18 15:32:22;;;;;;;23.30;9.60;;;;;;;;;;6164992;23;20004;-80
2023/01/18 15:34:49;;;;;;;18.33;9.80;;;;;;;;;;6189286;23;20312;-81
2023/01/18 15:37:29;;;;;;;17.58;9.27;;;;;;;;;;6189098;23;20011;-81
2023/01/18 15:40:13;;;;;;;20.95;10.65;;;;;;;;;;6166858;23;20000;-81
2023/01/18 15:42:57;;;;;;;27.35;12.23;;;;;;;;;;6189079;23;20017;-81
2023/01/18 15:45:28;;;;;;;32.28;15.57;;;;;;;;;;6189369;23;20387;-81
2023/01/18 15:47:56;;;;;;;32.75;13.70;;;;;;;;;;6165572;23;20028;-80
2023/01/18 15:50:26;;;;;;;26.92;12.73;;;;;;;;;;6164597;23;20004;-81
2023/01/18 15:53:00;;;;;;;33.03;14.20;;;;;;;;;;6189124;23;20004;-81
2023/01/18 15:55:33;;;;;;;32.08;12.75;;;;;;;;;;6142930;23;20458;-81
2023/01/18 15:58:04;;;;;;;28.70;11.88;;;;;;;;;;6164114;23;20031;-81
2023/01/18 16:00:36;;;;;;;23.55;10.50;;;;;;;;;;6190249;23;20015;-81
2023/01/18 16:03:03;;;;;;;27.42;10.60;;;;;;;;;;6189495;23;20028;-81
2023/01/18 16:05:30;;;;;;;20.05;10.32;;;;;;;;;;6164246;23;20008;-81
2023/01/18 16:08:17;;;;;;;25.63;11.10;;;;;;;;;;6190815;23;20000;-80
2023/01/18 16:10:50;;;;;;;28.08;11.98;;;;;;;;;;6170899;23;20313;-82
2023/01/18 16:13:25;;;;;;;28.77;11.55;;;;;;;;;;6169690;23;20009;-80
2023/01/18 16:16:14;;;;;;;14.18;6.68;;;;;;;;;;6226997;23;20056;-80
2023/01/18 16:18:50;;;;;;;13.73;5.90;;;;;;;;;;6203365;23;20008;-81
2023/01/18 16:21:21;;;;;;;19.23;7.68;;;;;;;;;;6166475;23;20506;-81
2023/01/18 16:23:48;;;;;;;15.48;7.55;;;;;;;;;;6189363;23;20009;-81
2023/01/18 16:26:14;;;;;;;14.35;8.20;;;;;;;;;;6188861;23;20005;-81
2023/01/18 16:28:40;;;;;;;19.98;10.00;;;;;;;;;;6189350;23;20180;-80
2023/01/18 16:31:05;;;;;;;27.50;13.10;;;;;;;;;;6215589;23;20444;-81
2023/01/18 16:33:30;;;;;;;32.53;13.57;;;;;;;;;;6189187;23;20035;-81
2023/01/18 16:35:56;;;;;;;31.85;13.00;;;;;;;;;;6215035;23;20003;-81